createdAt,value
2017-07-30T00:00:28.178Z,72.6
2017-07-30T00:01:30.007Z,72.3
2017-07-30T00:02:32.037Z,72.9
2017-07-30T00:03:33.692Z,72.0
2017-07-30T00:04:35.311Z,72.3
2017-07-30T00:05:36.958Z,72.6
2017-07-30T00:06:38.610Z,72.5
2017-07-30T00:07:40.585Z,71.9
2017-07-30T00:08:42.230Z,71.7
2017-07-30T00:09:43.882Z,71.6
2017-07-30T00:10:45.508Z,71.6
2017-07-30T00:11:47.145Z,71.4
2017-07-30T00:12:49.258Z,71.6
2017-07-30T00:13:50.903Z,71.5
2017-07-30T00:14:52.552Z,71.5
2017-07-30T00:15:54.197Z,71.6
2017-07-30T00:16:55.847Z,71.3
2017-07-30T00:17:57.546Z,71.2
2017-07-30T00:18:59.201Z,71.0
2017-07-30T00:20:00.848Z,71.0
2017-07-30T00:21:02.484Z,71.2
2017-07-30T00:22:04.142Z,71.1
2017-07-30T00:23:06.001Z,70.7
2017-07-30T00:24:07.635Z,70.8
2017-07-30T00:25:09.220Z,71.0
2017-07-30T00:26:10.910Z,70.7
2017-07-30T00:27:12.491Z,70.6
2017-07-30T00:28:14.399Z,70.6
2017-07-30T00:29:15.981Z,69.8
2017-07-30T00:30:18.254Z,69.8
2017-07-30T00:31:19.945Z,69.8
2017-07-30T00:32:21.527Z,70.0
2017-07-30T00:33:23.424Z,69.9
2017-07-30T00:34:25.009Z,70.0
2017-07-30T00:35:26.707Z,69.9
2017-07-30T00:36:28.291Z,69.8
2017-07-30T00:37:29.981Z,69.4
2017-07-30T00:38:31.796Z,69.4
2017-07-30T00:39:33.379Z,69.6
2017-07-30T00:40:35.060Z,69.6
2017-07-30T00:41:36.688Z,70.0
2017-07-30T00:42:39.118Z,69.8
2017-07-30T00:43:40.741Z,69.8
2017-07-30T00:44:42.691Z,69.9
2017-07-30T00:45:44.370Z,69.7
2017-07-30T00:46:47.215Z,70.0
2017-07-30T00:47:48.901Z,69.8
2017-07-30T00:48:50.493Z,69.9
2017-07-30T00:49:52.570Z,69.8
2017-07-30T00:50:54.258Z,69.8
2017-07-30T00:51:56.792Z,69.9
2017-07-30T00:52:58.503Z,69.9
2017-07-30T00:54:00.099Z,70.0
2017-07-30T00:55:02.029Z,70.2
2017-07-30T00:56:04.344Z,70.4
2017-07-30T00:57:06.041Z,70.2
2017-07-30T00:58:07.753Z,70.2
2017-07-30T00:59:09.445Z,70.2
2017-07-30T01:00:11.556Z,70.3
2017-07-30T01:01:13.161Z,70.2
2017-07-30T01:02:14.754Z,70.2
2017-07-30T01:03:16.427Z,70.2
2017-07-30T01:04:18.119Z,70.3
2017-07-30T01:05:21.068Z,70.1
2017-07-30T01:06:23.587Z,70.0
2017-07-30T01:07:25.291Z,70.0
2017-07-30T01:08:26.875Z,70.1
2017-07-30T01:09:28.460Z,70.4
2017-07-30T01:10:30.516Z,70.3
2017-07-30T01:11:32.201Z,70.7
2017-07-30T01:12:33.793Z,70.6
2017-07-30T01:13:35.498Z,70.2
2017-07-30T01:14:37.098Z,70.8
2017-07-30T01:15:38.836Z,70.6
2017-07-30T01:16:40.508Z,71.0
2017-07-30T01:17:42.223Z,70.9
2017-07-30T01:18:43.835Z,70.9
2017-07-30T01:19:45.545Z,70.6
2017-07-30T01:20:47.245Z,70.6
2017-07-30T01:21:48.849Z,70.9
2017-07-30T01:22:50.547Z,71.2
2017-07-30T01:23:52.161Z,71.1
2017-07-30T01:24:53.816Z,71.2
2017-07-30T01:25:55.517Z,71.0
2017-07-30T01:26:57.108Z,71.0
2017-07-30T01:27:58.719Z,71.2
2017-07-30T01:29:00.409Z,70.8
2017-07-30T01:30:02.414Z,71.2
2017-07-30T01:31:04.097Z,71.0
2017-07-30T01:32:05.775Z,70.9
2017-07-30T01:33:08.385Z,71.2
2017-07-30T01:34:09.970Z,71.0
2017-07-30T01:35:11.604Z,71.5
2017-07-30T01:36:13.286Z,71.6
2017-07-30T01:37:14.958Z,71.5
2017-07-30T01:38:16.666Z,71.6
2017-07-30T01:39:18.237Z,71.6
2017-07-30T01:40:20.297Z,71.7
2017-07-30T01:41:21.973Z,71.3
2017-07-30T01:42:23.642Z,71.3
2017-07-30T01:43:25.791Z,71.9
2017-07-30T01:44:27.453Z,71.9
2017-07-30T01:45:29.546Z,72.1
2017-07-30T01:46:31.223Z,71.6
2017-07-30T01:47:32.808Z,71.5
2017-07-30T01:48:34.392Z,71.8
2017-07-30T01:49:36.077Z,71.7
2017-07-30T01:50:37.697Z,72.0
2017-07-30T01:51:39.405Z,71.9
2017-07-30T01:52:41.070Z,72.1
2017-07-30T01:53:42.658Z,72.2
2017-07-30T01:54:44.350Z,72.3
2017-07-30T01:55:46.087Z,72.2
2017-07-30T01:56:47.687Z,72.3
2017-07-30T01:57:49.295Z,72.1
2017-07-30T01:58:50.902Z,72.3
2017-07-30T01:59:52.497Z,72.2
2017-07-30T02:00:54.629Z,72.5
2017-07-30T02:01:56.340Z,72.4
2017-07-30T02:02:57.940Z,72.3
2017-07-30T02:03:59.556Z,72.5
2017-07-30T02:05:01.163Z,72.5
2017-07-30T02:06:03.180Z,72.5
2017-07-30T02:07:04.782Z,72.4
2017-07-30T02:08:06.403Z,72.3
2017-07-30T02:09:08.008Z,72.6
2017-07-30T02:10:09.709Z,72.5
2017-07-30T02:11:11.787Z,72.4
2017-07-30T02:12:13.489Z,72.7
2017-07-30T02:13:15.078Z,72.7
2017-07-30T02:14:16.736Z,72.5
2017-07-30T02:15:18.344Z,72.5
2017-07-30T02:16:19.972Z,72.4
2017-07-30T02:17:21.663Z,72.4
2017-07-30T02:18:23.281Z,72.2
2017-07-30T02:19:24.889Z,72.3
2017-07-30T02:20:26.597Z,72.5
2017-07-30T02:21:28.245Z,72.0
2017-07-30T02:22:29.963Z,72.2
2017-07-30T02:23:31.570Z,72.0
2017-07-30T02:24:33.166Z,72.9
2017-07-30T02:25:34.790Z,72.0
2017-07-30T02:26:37.681Z,72.5
2017-07-30T02:27:39.299Z,72.4
2017-07-30T02:28:41.523Z,72.2
2017-07-30T02:29:43.220Z,72.4
2017-07-30T02:30:44.902Z,72.2
2017-07-30T02:31:46.942Z,72.7
2017-07-30T02:32:48.533Z,72.4
2017-07-30T02:33:50.150Z,72.5
2017-07-30T02:34:51.842Z,72.5
2017-07-30T02:35:53.543Z,72.4
2017-07-30T02:36:55.524Z,72.2
2017-07-30T02:37:57.229Z,72.2
2017-07-30T02:38:58.908Z,72.0
2017-07-30T02:40:01.022Z,72.0
2017-07-30T02:41:02.727Z,72.0
2017-07-30T02:42:04.469Z,72.8
2017-07-30T02:43:06.154Z,72.5
2017-07-30T02:44:07.842Z,72.5
2017-07-30T02:45:09.437Z,72.4
2017-07-30T02:46:11.134Z,72.8
2017-07-30T02:47:13.130Z,72.9
2017-07-30T02:48:14.741Z,73.1
2017-07-30T02:49:16.417Z,72.7
2017-07-30T02:50:18.017Z,72.7
2017-07-30T02:51:19.704Z,72.8
2017-07-30T02:52:21.724Z,72.7
2017-07-30T02:53:23.418Z,72.9
2017-07-30T02:54:25.676Z,72.8
2017-07-30T02:55:27.370Z,72.7
2017-07-30T02:56:28.970Z,73.2
2017-07-30T02:57:31.898Z,73.4
2017-07-30T02:58:33.493Z,73.1
2017-07-30T02:59:35.176Z,73.4
2017-07-30T03:00:36.777Z,73.6
2017-07-30T03:01:38.475Z,73.9
2017-07-30T03:02:40.206Z,73.8
2017-07-30T03:03:42.903Z,73.5
2017-07-30T03:04:44.596Z,73.4
2017-07-30T03:05:46.270Z,73.3
2017-07-30T03:06:47.895Z,73.4
2017-07-30T03:07:49.946Z,73.2
2017-07-30T03:08:51.536Z,73.3
2017-07-30T03:09:53.135Z,73.4
2017-07-30T03:10:54.746Z,73.6
2017-07-30T03:11:56.448Z,73.3
2017-07-30T03:12:58.171Z,73.4
2017-07-30T03:13:59.778Z,73.3
2017-07-30T03:15:01.369Z,73.5
2017-07-30T03:16:02.991Z,73.5
2017-07-30T03:17:04.933Z,73.3
2017-07-30T03:18:06.651Z,73.3
2017-07-30T03:19:09.316Z,73.5
2017-07-30T03:20:10.994Z,73.5
2017-07-30T03:21:12.604Z,73.5
2017-07-30T03:22:14.229Z,73.5
2017-07-30T03:23:15.829Z,73.3
2017-07-30T03:24:17.431Z,73.3
2017-07-30T03:25:19.109Z,73.4
2017-07-30T03:26:21.431Z,73.8
2017-07-30T03:27:23.959Z,73.8
2017-07-30T03:28:25.647Z,74.2
2017-07-30T03:29:27.336Z,74.1
2017-07-30T03:30:29.033Z,74.3
2017-07-30T03:31:31.710Z,74.2
2017-07-30T03:32:33.707Z,74.2
2017-07-30T03:33:35.308Z,74.4
2017-07-30T03:34:37.636Z,74.0
2017-07-30T03:35:39.336Z,74.0
2017-07-30T03:36:40.947Z,73.8
2017-07-30T03:37:42.761Z,73.6
2017-07-30T03:38:45.352Z,73.9
2017-07-30T03:39:48.706Z,73.8
2017-07-30T03:40:51.395Z,73.8
2017-07-30T03:41:53.120Z,73.9
2017-07-30T03:42:54.850Z,73.6
2017-07-30T03:43:57.180Z,73.9
2017-07-30T03:44:58.864Z,74.0
2017-07-30T03:46:00.553Z,73.7
2017-07-30T03:47:02.262Z,73.6
2017-07-30T03:48:04.334Z,73.6
2017-07-30T03:49:06.670Z,73.6
2017-07-30T03:50:08.389Z,73.8
2017-07-30T03:51:09.983Z,74.1
2017-07-30T03:52:11.594Z,74.0
2017-07-30T03:53:13.572Z,73.9
2017-07-30T03:54:15.166Z,74.1
2017-07-30T03:55:16.791Z,73.8
2017-07-30T03:56:18.492Z,74.1
2017-07-30T03:57:20.178Z,73.5
2017-07-30T03:58:22.199Z,73.6
2017-07-30T03:59:24.358Z,73.9
2017-07-30T04:00:26.053Z,74.0
2017-07-30T04:01:27.669Z,74.0
2017-07-30T04:02:29.262Z,74.0
2017-07-30T04:03:31.274Z,74.2
2017-07-30T04:04:32.970Z,74.0
2017-07-30T04:05:34.670Z,74.0
2017-07-30T04:06:36.378Z,74.5
2017-07-30T04:07:37.978Z,74.6
2017-07-30T04:08:40.956Z,74.7
2017-07-30T04:09:42.557Z,74.3
2017-07-30T04:10:44.163Z,74.5
2017-07-30T04:11:45.850Z,74.5
2017-07-30T04:12:47.535Z,74.6
2017-07-30T04:13:49.738Z,74.8
2017-07-30T04:14:51.391Z,74.9
2017-07-30T04:15:52.998Z,74.7
2017-07-30T04:16:54.607Z,74.5
2017-07-30T04:17:56.310Z,75.4
2017-07-30T04:18:57.928Z,74.4
2017-07-30T04:19:59.866Z,74.9
2017-07-30T04:21:01.475Z,74.9
2017-07-30T04:22:03.085Z,74.4
2017-07-30T04:23:04.763Z,75.0
2017-07-30T04:24:06.449Z,75.2
2017-07-30T04:25:08.163Z,74.5
2017-07-30T04:26:09.856Z,74.5
2017-07-30T04:27:11.546Z,75.2
2017-07-30T04:28:14.214Z,75.4
2017-07-30T04:29:16.280Z,75.4
2017-07-30T04:30:17.888Z,74.7
2017-07-30T04:31:19.499Z,75.0
2017-07-30T04:32:21.088Z,75.1
2017-07-30T04:33:22.680Z,75.1
2017-07-30T04:34:24.565Z,75.1
2017-07-30T04:35:26.257Z,74.9
2017-07-30T04:36:27.872Z,74.9
2017-07-30T04:37:29.476Z,75.0
2017-07-30T04:38:31.183Z,74.9
2017-07-30T04:39:33.305Z,75.0
2017-07-30T04:40:34.988Z,74.9
2017-07-30T04:41:36.603Z,75.4
2017-07-30T04:42:38.408Z,75.5
2017-07-30T04:43:40.954Z,75.5
2017-07-30T04:44:42.715Z,75.4
2017-07-30T04:45:44.426Z,74.7
2017-07-30T04:46:46.950Z,74.9
2017-07-30T04:47:48.796Z,74.7
2017-07-30T04:48:50.480Z,75.3
2017-07-30T04:49:52.830Z,75.5
2017-07-30T04:50:54.615Z,74.7
2017-07-30T04:51:56.748Z,75.0
2017-07-30T04:52:59.286Z,74.9
2017-07-30T04:54:01.138Z,75.1
2017-07-30T04:55:03.189Z,75.2
2017-07-30T04:56:04.970Z,75.0
2017-07-30T04:57:06.693Z,75.4
2017-07-30T04:58:08.443Z,74.7
2017-07-30T04:59:10.205Z,75.8
2017-07-30T05:00:12.172Z,75.9
2017-07-30T05:01:14.485Z,76.0
2017-07-30T05:02:16.318Z,76.2
2017-07-30T05:03:18.276Z,75.9
2017-07-30T05:04:20.046Z,75.5
2017-07-30T05:05:22.219Z,75.7
2017-07-30T05:06:24.106Z,75.6
2017-07-30T05:07:25.948Z,75.9
2017-07-30T05:08:27.826Z,75.8
2017-07-30T05:09:29.708Z,75.9
2017-07-30T05:10:32.043Z,76.7
2017-07-30T05:11:34.009Z,76.3
2017-07-30T05:12:36.639Z,76.4
2017-07-30T05:13:39.176Z,76.3
2017-07-30T05:14:41.102Z,76.9
2017-07-30T05:15:43.869Z,76.5
2017-07-30T05:16:45.771Z,76.6
2017-07-30T05:17:47.623Z,75.8
2017-07-30T05:18:49.541Z,77.0
2017-07-30T05:19:51.413Z,76.2
2017-07-30T05:20:53.730Z,76.3
2017-07-30T05:21:55.523Z,76.1
2017-07-30T05:22:57.421Z,76.5
2017-07-30T05:23:59.293Z,76.2
2017-07-30T05:25:01.003Z,76.3
2017-07-30T05:26:03.264Z,76.5
2017-07-30T05:27:05.042Z,76.1
2017-07-30T05:28:06.947Z,75.9
2017-07-30T05:29:08.683Z,75.9
2017-07-30T05:30:10.645Z,76.1
2017-07-30T05:31:12.800Z,75.9
2017-07-30T05:32:14.781Z,75.9
2017-07-30T05:33:16.569Z,76.0
2017-07-30T05:34:18.438Z,75.8
2017-07-30T05:35:20.153Z,75.8
2017-07-30T05:36:22.191Z,75.7
2017-07-30T05:37:23.953Z,76.3
2017-07-30T05:38:25.798Z,76.2
2017-07-30T05:39:27.583Z,76.1
2017-07-30T05:40:29.457Z,76.8
2017-07-30T05:41:31.708Z,77.0
2017-07-30T05:42:33.492Z,76.8
2017-07-30T05:43:35.323Z,76.6
2017-07-30T05:44:37.804Z,76.9
2017-07-30T05:45:39.692Z,76.8
2017-07-30T05:46:41.728Z,76.2
2017-07-30T05:47:43.484Z,76.0
2017-07-30T05:48:45.328Z,76.3
2017-07-30T05:49:47.216Z,76.7
2017-07-30T05:50:48.956Z,76.8
2017-07-30T05:51:51.010Z,76.8
2017-07-30T05:52:52.855Z,76.8
2017-07-30T05:53:54.674Z,77.0
2017-07-30T05:54:56.541Z,77.0
2017-07-30T05:55:58.289Z,77.0
2017-07-30T05:57:00.720Z,76.8
2017-07-30T05:58:02.556Z,77.6
2017-07-30T05:59:04.276Z,77.4
2017-07-30T06:00:06.099Z,77.1
2017-07-30T06:01:07.993Z,76.7
2017-07-30T06:02:10.273Z,76.7
2017-07-30T06:03:12.039Z,77.0
2017-07-30T06:04:13.794Z,77.0
2017-07-30T06:05:15.554Z,76.9
2017-07-30T06:06:17.300Z,77.2
2017-07-30T06:07:19.459Z,77.0
2017-07-30T06:08:21.306Z,77.7
2017-07-30T06:09:23.027Z,77.3
2017-07-30T06:10:24.801Z,77.6
2017-07-30T06:11:26.685Z,77.9
2017-07-30T06:12:28.861Z,77.5
2017-07-30T06:13:30.757Z,77.6
2017-07-30T06:14:32.673Z,77.9
2017-07-30T06:15:34.570Z,78.1
2017-07-30T06:16:36.455Z,77.7
2017-07-30T06:17:38.689Z,77.5
2017-07-30T06:18:40.649Z,77.8
2017-07-30T06:19:42.541Z,77.9
2017-07-30T06:20:44.299Z,78.2
2017-07-30T06:21:46.335Z,78.3
2017-07-30T06:22:48.593Z,78.1
2017-07-30T06:23:50.492Z,77.8
2017-07-30T06:24:53.323Z,78.1
2017-07-30T06:25:55.190Z,78.1
2017-07-30T06:26:57.118Z,78.3
2017-07-30T06:27:59.489Z,78.4
2017-07-30T06:29:01.372Z,78.1
2017-07-30T06:30:03.347Z,78.1
2017-07-30T06:31:05.169Z,78.3
2017-07-30T06:32:07.083Z,78.4
2017-07-30T06:33:09.246Z,78.0
2017-07-30T06:34:11.146Z,78.3
2017-07-30T06:35:13.017Z,78.9
2017-07-30T06:36:14.963Z,78.7
2017-07-30T06:37:16.940Z,78.7
2017-07-30T06:38:19.400Z,78.9
2017-07-30T06:39:21.272Z,78.7
2017-07-30T06:40:23.154Z,78.8
2017-07-30T06:41:25.132Z,78.5
2017-07-30T06:42:27.930Z,78.4
2017-07-30T06:43:29.874Z,78.9
2017-07-30T06:44:32.199Z,78.7
2017-07-30T06:45:34.192Z,78.7
2017-07-30T06:46:36.099Z,78.8
2017-07-30T06:47:38.005Z,78.9
2017-07-30T06:48:39.971Z,78.3
2017-07-30T06:49:42.979Z,78.6
2017-07-30T06:50:44.880Z,78.8
2017-07-30T06:51:46.596Z,78.6
2017-07-30T06:52:48.478Z,78.2
2017-07-30T06:53:52.059Z,78.2
2017-07-30T06:54:54.261Z,78.7
2017-07-30T06:55:56.143Z,78.2
2017-07-30T06:56:58.152Z,78.0
2017-07-30T06:57:59.843Z,78.2
2017-07-30T06:59:01.682Z,78.4
2017-07-30T07:00:03.636Z,78.3
2017-07-30T07:01:05.611Z,78.0
2017-07-30T07:02:07.255Z,78.0
2017-07-30T07:03:09.061Z,78.3
2017-07-30T07:04:10.939Z,77.6
2017-07-30T07:05:12.988Z,77.6
2017-07-30T07:06:14.705Z,77.2
2017-07-30T07:07:17.153Z,77.7
2017-07-30T07:08:18.211Z,77.2
2017-07-30T07:09:20.631Z,77.0
2017-07-30T07:10:22.836Z,77.0
2017-07-30T07:11:24.662Z,77.3
2017-07-30T07:12:26.350Z,76.6
2017-07-30T07:13:28.054Z,76.4
2017-07-30T07:14:29.909Z,77.0
2017-07-30T07:15:32.042Z,76.8
2017-07-30T07:16:33.905Z,76.8
2017-07-30T07:17:35.798Z,76.9
2017-07-30T07:18:37.597Z,76.9
2017-07-30T07:19:39.347Z,77.0
2017-07-30T07:20:42.185Z,76.3
2017-07-30T07:21:44.048Z,76.0
2017-07-30T07:22:45.768Z,75.1
2017-07-30T07:23:48.982Z,74.6
2017-07-30T07:24:51.216Z,75.2
2017-07-30T07:25:53.000Z,74.9
2017-07-30T07:26:55.286Z,74.3
2017-07-30T07:27:56.945Z,73.6
2017-07-30T07:28:58.653Z,74.0
2017-07-30T07:30:00.681Z,74.2
2017-07-30T07:31:02.383Z,74.2
2017-07-30T07:32:05.046Z,74.7
2017-07-30T07:33:07.688Z,73.7
2017-07-30T07:34:09.428Z,74.1
2017-07-30T07:35:11.619Z,73.8
2017-07-30T07:36:13.366Z,74.2
2017-07-30T07:37:15.349Z,73.8
2017-07-30T07:38:17.367Z,72.0
2017-07-30T07:39:19.242Z,71.4
2017-07-30T07:40:21.312Z,72.5
2017-07-30T07:41:23.030Z,72.5
2017-07-30T07:42:24.791Z,73.4
2017-07-30T07:43:26.610Z,72.8
2017-07-30T07:44:28.433Z,72.5
2017-07-30T07:45:30.312Z,72.6
2017-07-30T07:46:32.579Z,72.2
2017-07-30T07:47:34.430Z,72.8
2017-07-30T07:48:36.908Z,70.7
2017-07-30T07:49:38.745Z,71.7
2017-07-30T07:50:40.884Z,71.9
2017-07-30T07:51:42.674Z,71.9
2017-07-30T07:52:44.426Z,71.6
2017-07-30T07:53:46.205Z,71.9
2017-07-30T07:54:47.969Z,72.2
2017-07-30T07:55:49.921Z,71.0
2017-07-30T07:56:53.359Z,70.3
2017-07-30T07:57:55.424Z,69.0
2017-07-30T07:58:58.917Z,69.0
2017-07-30T08:00:00.983Z,69.6
2017-07-30T08:01:02.866Z,69.0
2017-07-30T08:02:04.563Z,69.0
2017-07-30T08:03:06.322Z,68.1
2017-07-30T08:04:07.992Z,68.4
2017-07-30T08:05:10.137Z,68.5
2017-07-30T08:06:11.986Z,67.5
2017-07-30T08:07:13.972Z,67.2
2017-07-30T08:08:15.815Z,67.1
2017-07-30T08:09:17.627Z,65.3
2017-07-30T08:10:20.046Z,65.3
2017-07-30T08:11:21.975Z,65.8
2017-07-30T08:12:25.455Z,64.7
2017-07-30T08:13:29.638Z,61.6
2017-07-30T08:14:31.797Z,62.6
2017-07-30T08:15:34.792Z,62.2
2017-07-30T08:16:36.661Z,62.0
2017-07-30T08:17:38.706Z,62.9
2017-07-30T08:18:41.421Z,60.9
2017-07-30T08:19:44.548Z,61.7
2017-07-30T08:20:47.751Z,61.8
2017-07-30T08:21:50.226Z,61.7
2017-07-30T08:22:52.045Z,61.2
2017-07-30T08:23:53.766Z,61.0
2017-07-30T08:24:58.037Z,59.4
2017-07-30T08:26:00.291Z,60.4
2017-07-30T08:27:02.468Z,59.1
2017-07-30T08:28:04.234Z,60.5
2017-07-30T08:29:06.125Z,60.4
2017-07-30T08:30:08.722Z,61.3
2017-07-30T08:31:12.045Z,61.3
2017-07-30T08:32:13.862Z,60.7
2017-07-30T08:33:17.387Z,60.3
2017-07-30T08:34:19.184Z,59.3
2017-07-30T08:35:22.326Z,57.8
2017-07-30T08:36:24.677Z,57.7
2017-07-30T08:37:26.618Z,58.3
2017-07-30T08:38:28.718Z,57.8
2017-07-30T08:39:30.532Z,57.1
2017-07-30T08:40:32.485Z,57.1
2017-07-30T08:41:34.807Z,57.6
2017-07-30T08:42:36.714Z,57.3
2017-07-30T08:43:38.596Z,57.4
2017-07-30T08:44:40.608Z,57.3
2017-07-30T08:45:43.111Z,57.8
2017-07-30T08:46:44.911Z,56.2
2017-07-30T08:47:47.009Z,56.1
2017-07-30T08:48:51.901Z,56.2
2017-07-30T08:49:56.046Z,55.9
2017-07-30T08:51:00.897Z,56.8
2017-07-30T08:52:04.844Z,56.4
2017-07-30T08:53:07.824Z,56.1
2017-07-30T08:54:11.527Z,56.9
2017-07-30T08:55:14.959Z,57.1
2017-07-30T08:56:19.473Z,57.3
2017-07-30T08:57:22.367Z,57.0
2017-07-30T08:58:25.775Z,57.3
2017-07-30T08:59:27.696Z,56.5
2017-07-30T09:00:29.505Z,56.9
2017-07-30T09:01:31.211Z,57.4
2017-07-30T09:02:34.976Z,56.3
2017-07-30T09:03:37.343Z,56.4
2017-07-30T09:04:41.544Z,57.3
2017-07-30T09:05:48.019Z,57.1
2017-07-30T09:06:50.882Z,57.3
2017-07-30T09:07:54.828Z,56.6
2017-07-30T09:08:59.505Z,55.9
2017-07-30T09:10:03.047Z,56.2
2017-07-30T09:11:12.767Z,55.5
2017-07-30T09:12:17.742Z,56.8
2017-07-30T09:13:19.906Z,56.7
2017-07-30T09:14:21.769Z,54.7
2017-07-30T09:15:27.805Z,55.2
2017-07-30T09:16:32.374Z,55.9
2017-07-30T09:17:36.682Z,55.1
2017-07-30T09:18:38.408Z,54.9
2017-07-30T09:19:41.116Z,54.9
2017-07-30T09:20:43.023Z,55.7
2017-07-30T09:21:44.736Z,56.5
2017-07-30T09:22:47.873Z,57.6
2017-07-30T09:23:51.540Z,56.0
2017-07-30T09:24:57.220Z,54.9
2017-07-30T09:25:59.203Z,56.1
2017-07-30T09:27:00.966Z,56.5
2017-07-30T09:28:03.439Z,57.1
2017-07-30T09:29:05.301Z,56.2
2017-07-30T09:30:13.843Z,57.7
2017-07-30T09:31:15.669Z,56.6
2017-07-30T09:32:17.806Z,56.7
2017-07-30T09:33:27.152Z,55.3
2017-07-30T09:34:28.782Z,56.7
2017-07-30T09:35:30.529Z,57.8
2017-07-30T09:36:32.310Z,57.5
2017-07-30T09:37:34.395Z,58.2
2017-07-30T09:38:36.401Z,58.6
2017-07-30T09:39:38.178Z,58.0
2017-07-30T09:40:39.990Z,55.3
2017-07-30T09:41:41.802Z,55.1
2017-07-30T09:42:43.546Z,55.7
2017-07-30T09:43:45.559Z,54.8
2017-07-30T09:44:47.477Z,54.9
2017-07-30T09:45:49.297Z,56.1
2017-07-30T09:46:52.099Z,55.1
2017-07-30T09:47:53.823Z,54.7
2017-07-30T09:48:56.241Z,56.1
2017-07-30T09:49:58.864Z,54.8
2017-07-30T09:51:01.056Z,55.1
2017-07-30T09:52:05.169Z,54.8
2017-07-30T09:53:08.015Z,54.1
2017-07-30T09:54:11.584Z,55.8
2017-07-30T09:55:15.478Z,53.3
2017-07-30T09:56:19.391Z,53.2
2017-07-30T09:57:22.425Z,53.4
2017-07-30T09:58:25.728Z,54.0
2017-07-30T09:59:29.029Z,53.6
2017-07-30T10:00:32.055Z,54.1
2017-07-30T10:01:37.310Z,54.1
2017-07-30T10:02:40.810Z,54.3
2017-07-30T10:03:44.345Z,54.8
2017-07-30T10:04:46.551Z,56.0
2017-07-30T10:05:49.567Z,55.6
2017-07-30T10:06:52.756Z,54.9
2017-07-30T10:07:54.698Z,56.3
2017-07-30T10:08:57.314Z,54.8
2017-07-30T10:09:59.306Z,56.0
2017-07-30T10:11:01.319Z,56.4
2017-07-30T10:12:03.178Z,55.5
2017-07-30T10:13:06.060Z,55.1
2017-07-30T10:14:07.835Z,55.8
2017-07-30T10:15:09.964Z,56.6
2017-07-30T10:16:13.184Z,55.3
2017-07-30T10:17:15.072Z,56.2
2017-07-30T10:18:17.006Z,56.4
2017-07-30T10:19:18.810Z,56.3
2017-07-30T10:20:21.096Z,56.6
2017-07-30T10:21:23.631Z,56.6
2017-07-30T10:22:25.310Z,56.7
2017-07-30T10:23:27.078Z,56.6
2017-07-30T10:24:29.601Z,57.9
2017-07-30T10:25:31.957Z,55.3
2017-07-30T10:26:33.766Z,54.9
2017-07-30T10:27:35.558Z,55.4
2017-07-30T10:28:37.361Z,54.7
2017-07-30T10:29:39.138Z,54.8
2017-07-30T10:30:41.440Z,55.1
2017-07-30T10:31:43.220Z,54.8
2017-07-30T10:32:51.586Z,54.6
2017-07-30T10:33:55.073Z,54.1
2017-07-30T10:36:08.819Z,55.5
2017-07-30T10:37:10.554Z,55.2
2017-07-30T10:38:12.247Z,56.0
2017-07-30T10:39:13.987Z,56.2
2017-07-30T10:40:15.762Z,56.4
2017-07-30T10:41:17.878Z,56.2
2017-07-30T10:42:19.561Z,55.6
2017-07-30T10:43:21.285Z,54.8
2017-07-30T10:44:22.984Z,56.2
2017-07-30T10:45:24.738Z,57.2
2017-07-30T10:46:26.784Z,56.6
2017-07-30T10:47:28.494Z,57.1
2017-07-30T10:48:30.119Z,57.3
2017-07-30T10:49:31.740Z,56.4
2017-07-30T10:50:33.445Z,56.7
2017-07-30T10:51:35.442Z,56.3
2017-07-30T10:52:37.106Z,54.9
2017-07-30T10:53:38.806Z,53.0
2017-07-30T10:54:40.609Z,54.6
2017-07-30T10:55:42.379Z,54.5
2017-07-30T10:56:44.418Z,52.9
2017-07-30T10:57:46.188Z,52.3
2017-07-30T10:58:47.892Z,53.6
2017-07-30T10:59:49.556Z,52.6
2017-07-30T11:00:51.317Z,52.0
2017-07-30T11:01:53.494Z,52.8
2017-07-30T11:02:56.139Z,53.1
2017-07-30T11:03:57.774Z,53.8
2017-07-30T11:04:59.488Z,54.1
2017-07-30T11:06:01.337Z,55.0
2017-07-30T11:07:03.533Z,52.3
2017-07-30T11:08:06.250Z,53.0
2017-07-30T11:09:08.095Z,52.3
2017-07-30T11:10:09.826Z,52.2
2017-07-30T11:11:11.748Z,51.5
2017-07-30T11:12:13.620Z,51.5
2017-07-30T11:13:19.012Z,52.6
2017-07-30T11:14:21.515Z,52.9
2017-07-30T11:15:23.263Z,53.1
2017-07-30T11:16:24.867Z,53.2
2017-07-30T11:17:27.794Z,53.9
2017-07-30T11:18:29.555Z,53.7
2017-07-30T11:19:31.426Z,53.2
2017-07-30T11:20:33.099Z,53.0
2017-07-30T11:21:34.862Z,54.2
2017-07-30T11:22:36.764Z,53.7
2017-07-30T11:23:39.277Z,52.9
2017-07-30T11:24:40.283Z,52.3
2017-07-30T11:25:42.054Z,52.7
2017-07-30T11:26:43.847Z,53.6
2017-07-30T11:27:45.883Z,52.7
2017-07-30T11:28:47.961Z,51.7
2017-07-30T11:29:49.620Z,51.9
2017-07-30T11:30:51.395Z,52.4
2017-07-30T11:31:53.146Z,52.1
2017-07-30T11:32:54.939Z,51.7
2017-07-30T11:33:56.739Z,51.8
2017-07-30T11:34:58.456Z,52.4
2017-07-30T11:36:00.276Z,51.6
2017-07-30T11:37:02.242Z,50.8
2017-07-30T11:38:04.265Z,50.3
2017-07-30T11:39:07.003Z,49.1
2017-07-30T11:40:09.064Z,48.3
2017-07-30T11:41:10.849Z,48.7
2017-07-30T11:42:12.919Z,49.4
2017-07-30T11:43:15.210Z,49.4
2017-07-30T11:44:17.018Z,48.5
2017-07-30T11:45:18.701Z,46.9
2017-07-30T11:46:21.551Z,46.7
2017-07-30T11:47:23.947Z,47.5
2017-07-30T11:48:25.689Z,46.8
2017-07-30T11:49:27.540Z,47.2
2017-07-30T11:50:29.321Z,46.9
2017-07-30T11:51:31.250Z,45.5
2017-07-30T11:52:33.121Z,45.3
2017-07-30T11:53:34.924Z,46.6
2017-07-30T11:54:36.694Z,46.0
2017-07-30T11:55:38.502Z,45.0
2017-07-30T11:56:40.269Z,45.4
2017-07-30T11:57:42.409Z,45.1
2017-07-30T11:58:44.789Z,45.6
2017-07-30T11:59:46.634Z,47.0
2017-07-30T12:00:48.302Z,47.6
2017-07-30T12:01:50.000Z,44.9
2017-07-30T12:02:51.770Z,45.8
2017-07-30T12:03:53.472Z,45.4
2017-07-30T12:04:55.156Z,46.1
2017-07-30T12:05:57.589Z,46.0
2017-07-30T12:06:59.324Z,45.3
2017-07-30T12:08:01.468Z,44.7
2017-07-30T12:09:03.060Z,45.7
2017-07-30T12:10:05.405Z,43.9
2017-07-30T12:11:07.079Z,42.5
2017-07-30T12:12:08.764Z,42.8
2017-07-30T12:13:10.781Z,42.7
2017-07-30T12:14:12.397Z,42.7
2017-07-30T12:15:14.124Z,44.5
2017-07-30T12:16:17.559Z,44.0
2017-07-30T12:17:19.323Z,43.5
2017-07-30T12:18:21.528Z,43.9
2017-07-30T12:19:23.176Z,43.9
2017-07-30T12:20:24.914Z,43.4
2017-07-30T12:21:26.848Z,43.8
2017-07-30T12:22:28.663Z,44.8
2017-07-30T12:23:30.833Z,44.5
2017-07-30T12:24:32.531Z,45.1
2017-07-30T12:25:34.354Z,45.4
2017-07-30T12:26:36.889Z,44.0
2017-07-30T12:27:38.717Z,43.8
2017-07-30T12:28:40.970Z,43.4
2017-07-30T12:29:42.589Z,44.0
2017-07-30T12:30:44.441Z,41.2
2017-07-30T12:31:46.264Z,40.5
2017-07-30T12:32:48.330Z,41.7
2017-07-30T12:33:50.519Z,42.2
2017-07-30T12:34:52.293Z,42.5
2017-07-30T12:35:54.069Z,42.8
2017-07-30T12:36:56.019Z,42.6
2017-07-30T12:37:59.653Z,39.4
2017-07-30T12:39:01.781Z,36.1
2017-07-30T12:40:03.580Z,35.8
2017-07-30T12:41:05.526Z,36.8
2017-07-30T12:42:08.426Z,36.2
2017-07-30T12:43:10.291Z,36.7
2017-07-30T12:44:12.450Z,37.5
2017-07-30T12:45:14.324Z,37.1
2017-07-30T12:46:16.441Z,39.0
2017-07-30T12:47:18.156Z,38.8
2017-07-30T12:48:19.828Z,40.5
2017-07-30T12:49:21.505Z,40.5
2017-07-30T12:50:23.199Z,41.4
2017-07-30T12:51:24.884Z,42.7
2017-07-30T12:52:26.606Z,42.2
2017-07-30T12:53:29.447Z,42.1
2017-07-30T12:54:31.407Z,42.6
2017-07-30T12:55:33.032Z,43.7
2017-07-30T12:56:34.790Z,43.8
2017-07-30T12:57:36.557Z,42.2
2017-07-30T12:58:38.330Z,42.3
2017-07-30T12:59:40.509Z,42.1
2017-07-30T13:00:42.307Z,39.8
2017-07-30T13:01:44.143Z,40.2
2017-07-30T13:02:45.852Z,40.1
2017-07-30T13:03:47.925Z,38.9
2017-07-30T13:04:49.978Z,40.0
2017-07-30T13:05:51.694Z,39.3
2017-07-30T13:06:53.393Z,39.9
2017-07-30T13:07:55.111Z,39.1
2017-07-30T13:08:57.644Z,39.0
2017-07-30T13:09:59.893Z,38.2
2017-07-30T13:11:01.735Z,36.7
2017-07-30T13:12:03.787Z,36.5
2017-07-30T13:13:05.487Z,35.4
2017-07-30T13:14:07.150Z,37.4
2017-07-30T13:15:10.537Z,36.0
2017-07-30T13:16:12.229Z,35.0
2017-07-30T13:17:15.673Z,34.9
2017-07-30T13:18:17.621Z,34.4
2017-07-30T13:19:19.414Z,34.0
2017-07-30T13:20:21.768Z,34.9
2017-07-30T13:21:23.492Z,32.6
2017-07-30T13:22:25.308Z,33.5
2017-07-30T13:23:27.221Z,31.0
2017-07-30T13:24:29.156Z,31.2
2017-07-30T13:25:31.453Z,31.7
2017-07-30T13:26:33.689Z,31.0
2017-07-30T13:27:35.484Z,31.7
2017-07-30T13:28:37.197Z,33.8
2017-07-30T13:29:38.907Z,34.1
2017-07-30T13:30:41.665Z,33.3
2017-07-30T13:31:43.462Z,32.6
2017-07-30T13:32:45.627Z,33.9
2017-07-30T13:33:47.450Z,32.5
2017-07-30T13:34:49.244Z,33.4
2017-07-30T13:35:51.560Z,32.6
2017-07-30T13:36:53.320Z,31.7
2017-07-30T13:37:55.122Z,31.7
2017-07-30T13:38:56.906Z,31.7
2017-07-30T13:39:58.726Z,33.5
2017-07-30T13:41:01.010Z,32.9
2017-07-30T13:42:02.844Z,29.7
2017-07-30T13:43:04.713Z,31.7
2017-07-30T13:44:06.392Z,30.4
2017-07-30T13:45:08.797Z,31.5
2017-07-30T13:46:10.820Z,30.8
2017-07-30T13:47:14.033Z,30.6